Schifflange, Luxembourg
Current Conditions -  °F | °C
As of 11:20 AM on Wednesday 22 Oct 2014 (Local Time) from ELLX Reporting Station
Scattered Clouds Scattered Clouds  
Wind Chill: 40°   Ceiling: Unl
Heat Index: 46°   Visibility: 6mi
Dew Point: 37°   Wind: 14mph
Humidity: 71%   Direction: 290°WNW
Pressure: 30.12"   Gusts: NA
Location:  49.51°N, 6.01°E
Report Text: ELLX 220920Z 29012KT 260V330 9999 FEW021 SCT027 08/03 Q1020 NOSIG
Loading
Personal Weather Stations






























Interactive Weather Map
Tropical Storm Tracking
New forecast layout! Learn more

10-Day Weather Forecast

Advertisements
Track Severe Weather on mobile